createdAt,value
2022-10-19T00:01:49.044Z,100.00
2022-10-19T00:04:34.638Z,100.00
2022-10-19T00:07:19.782Z,100.00
2022-10-19T00:10:05.485Z,100.00
2022-10-19T00:12:51.493Z,100.00
2022-10-19T00:15:41.003Z,100.00
2022-10-19T00:18:26.472Z,100.00
2022-10-19T00:21:14.651Z,100.00
2022-10-19T00:23:59.770Z,100.00
2022-10-19T00:26:44.687Z,100.00
2022-10-19T00:29:29.621Z,100.00
2022-10-19T00:32:14.952Z,100.00
2022-10-19T00:35:00.335Z,100.00
2022-10-19T00:37:45.769Z,100.00
2022-10-19T00:40:38.079Z,100.00
2022-10-19T00:43:26.507Z,100.00
2022-10-19T00:46:13.598Z,100.00
2022-10-19T00:49:13.402Z,100.00
2022-10-19T00:52:04.875Z,100.00
2022-10-19T00:54:51.759Z,100.00
2022-10-19T00:57:37.028Z,100.00
2022-10-19T01:00:22.254Z,100.00
2022-10-19T01:03:09.577Z,100.00
2022-10-19T01:05:55.170Z,100.00
2022-10-19T01:08:40.313Z,100.00
2022-10-19T01:11:46.520Z,100.00
2022-10-19T01:14:34.468Z,100.00
2022-10-19T01:18:02.047Z,100.00
2022-10-19T01:20:59.210Z,100.00
2022-10-19T01:24:16.981Z,100.00
2022-10-19T01:27:17.107Z,100.00
2022-10-19T01:30:08.641Z,100.00
2022-10-19T01:33:31.514Z,100.00
2022-10-19T01:36:30.294Z,100.00
2022-10-19T01:39:51.139Z,100.00
2022-10-19T01:42:52.211Z,100.00
2022-10-19T01:45:52.562Z,100.00
2022-10-19T01:48:40.896Z,100.00
2022-10-19T01:51:31.723Z,100.00
2022-10-19T01:54:19.463Z,100.00
2022-10-19T01:57:08.277Z,100.00
2022-10-19T01:59:54.883Z,100.00
2022-10-19T02:02:45.505Z,100.00
2022-10-19T02:05:32.750Z,100.00
2022-10-19T02:08:25.140Z,100.00
2022-10-19T02:11:10.384Z,100.00
2022-10-19T02:14:04.220Z,100.00
2022-10-19T02:16:54.982Z,100.00
2022-10-19T02:19:41.210Z,100.00
2022-10-19T02:22:26.452Z,100.00
2022-10-19T02:25:12.913Z,100.00
2022-10-19T02:27:59.829Z,100.00
2022-10-19T02:30:44.966Z,100.00
2022-10-19T02:33:31.028Z,100.00
2022-10-19T02:36:17.406Z,100.00
2022-10-19T02:39:03.278Z,100.00
2022-10-19T02:42:00.273Z,100.00
2022-10-19T02:45:13.049Z,100.00
2022-10-19T02:48:07.747Z,100.00
2022-10-19T02:50:52.742Z,100.00
2022-10-19T02:53:37.868Z,100.00
2022-10-19T02:56:22.903Z,100.00
2022-10-19T02:59:08.026Z,100.00
2022-10-19T03:01:53.089Z,100.00
2022-10-19T03:04:38.589Z,100.00
2022-10-19T03:07:24.815Z,100.00
2022-10-19T03:10:10.094Z,100.00
2022-10-19T03:12:57.769Z,100.00
2022-10-19T03:15:43.093Z,100.00
2022-10-19T03:18:28.026Z,100.00
2022-10-19T03:21:13.601Z,100.00
2022-10-19T03:24:00.305Z,100.00
2022-10-19T03:26:45.395Z,100.00
2022-10-19T03:29:30.489Z,100.00
2022-10-19T03:32:15.298Z,100.00
2022-10-19T03:35:00.245Z,100.00
2022-10-19T03:37:45.752Z,100.00
2022-10-19T03:40:30.577Z,100.00
2022-10-19T03:43:15.300Z,100.00
2022-10-19T03:46:00.375Z,100.00
2022-10-19T03:48:45.581Z,100.00
2022-10-19T03:51:32.251Z,100.00
2022-10-19T03:54:17.728Z,100.00
2022-10-19T03:57:02.603Z,100.00
2022-10-19T03:59:48.750Z,100.00
2022-10-19T04:02:34.295Z,100.00
2022-10-19T04:05:19.321Z,100.00
2022-10-19T04:08:05.049Z,100.00
2022-10-19T04:10:50.196Z,100.00
2022-10-19T04:13:35.636Z,100.00
2022-10-19T04:16:22.203Z,100.00
2022-10-19T04:19:08.138Z,100.00
2022-10-19T04:21:53.291Z,100.00
2022-10-19T04:24:38.167Z,100.00
2022-10-19T04:27:23.312Z,100.00
2022-10-19T04:30:08.963Z,100.00
2022-10-19T04:32:53.869Z,100.00
2022-10-19T04:35:38.852Z,100.00
2022-10-19T04:38:23.680Z,100.00
2022-10-19T04:41:12.529Z,100.00
2022-10-19T04:44:00.170Z,100.00
2022-10-19T04:46:45.536Z,100.00
2022-10-19T04:49:30.405Z,100.00
2022-10-19T04:52:15.461Z,100.00
2022-10-19T04:55:01.484Z,100.00
2022-10-19T04:57:46.798Z,100.00
2022-10-19T05:00:31.954Z,100.00
2022-10-19T05:03:17.608Z,100.00
2022-10-19T05:06:03.394Z,100.00
2022-10-19T05:08:49.137Z,100.00
2022-10-19T05:11:33.955Z,100.00
2022-10-19T05:14:19.022Z,100.00
2022-10-19T05:17:04.496Z,100.00
2022-10-19T05:19:49.423Z,100.00
2022-10-19T05:22:34.929Z,100.00
2022-10-19T05:25:20.373Z,100.00
2022-10-19T05:28:05.302Z,100.00
2022-10-19T05:30:50.182Z,100.00
2022-10-19T05:33:36.513Z,100.00
2022-10-19T05:36:29.663Z,100.00
2022-10-19T05:39:17.302Z,100.00
2022-10-19T05:42:02.662Z,100.00
2022-10-19T05:44:47.804Z,100.00
2022-10-19T05:47:34.399Z,100.00
2022-10-19T05:50:19.876Z,100.00
2022-10-19T05:53:05.288Z,100.00
2022-10-19T05:55:50.295Z,100.00
2022-10-19T05:58:35.791Z,100.00
2022-10-19T06:01:21.064Z,100.00
2022-10-19T06:04:06.396Z,100.00
2022-10-19T06:06:51.746Z,100.00
2022-10-19T06:09:37.191Z,100.00
2022-10-19T06:12:24.934Z,100.00
2022-10-19T06:15:10.437Z,100.00
2022-10-19T06:17:55.606Z,100.00
2022-10-19T06:20:42.025Z,100.00
2022-10-19T06:23:27.702Z,100.00
2022-10-19T06:26:14.273Z,100.00
2022-10-19T06:29:01.590Z,100.00
2022-10-19T06:31:48.017Z,100.00
2022-10-19T06:34:33.031Z,100.00
2022-10-19T06:37:18.428Z,100.00
2022-10-19T06:40:07.083Z,100.00
2022-10-19T06:42:55.118Z,100.00
2022-10-19T06:45:40.576Z,100.00
2022-10-19T06:48:25.735Z,100.00
2022-10-19T06:51:11.230Z,100.00
2022-10-19T06:53:57.478Z,100.00
2022-10-19T06:56:43.042Z,100.00
2022-10-19T06:59:28.001Z,100.00
2022-10-19T07:02:13.647Z,100.00
2022-10-19T07:05:01.134Z,100.00
2022-10-19T07:07:48.828Z,100.00
2022-10-19T07:10:34.060Z,100.00
2022-10-19T07:13:19.281Z,100.00
2022-10-19T07:16:16.068Z,100.00
2022-10-19T07:19:05.159Z,100.00
2022-10-19T07:21:51.480Z,100.00
2022-10-19T07:24:36.925Z,100.00
2022-10-19T07:27:21.939Z,100.00
2022-10-19T07:30:07.794Z,100.00
2022-10-19T07:32:53.370Z,100.00
2022-10-19T07:35:39.047Z,100.00
2022-10-19T07:38:24.594Z,100.00
2022-10-19T07:41:16.561Z,100.00
2022-10-19T07:44:02.045Z,100.00
2022-10-19T07:46:47.502Z,100.00
2022-10-19T07:49:32.636Z,100.00
2022-10-19T07:52:20.654Z,100.00
2022-10-19T07:55:06.041Z,100.00
2022-10-19T07:57:51.036Z,100.00
2022-10-19T08:00:36.275Z,100.00
2022-10-19T08:06:28.026Z,100.00
2022-10-19T08:09:27.997Z,100.00
2022-10-19T08:12:19.771Z,100.00
2022-10-19T08:15:05.368Z,100.00
2022-10-19T08:17:51.766Z,100.00
2022-10-19T08:20:40.178Z,100.00
2022-10-19T08:23:25.057Z,100.00
2022-10-19T08:26:10.560Z,100.00
2022-10-19T08:29:07.497Z,100.00
2022-10-19T08:31:52.595Z,100.00
2022-10-19T08:34:37.841Z,100.00
2022-10-19T08:37:39.925Z,100.00
2022-10-19T08:40:30.941Z,100.00
2022-10-19T08:43:28.235Z,100.00
2022-10-19T08:46:24.988Z,100.00
2022-10-19T08:49:15.802Z,100.00
2022-10-19T08:52:07.132Z,100.00
2022-10-19T08:54:56.331Z,99.49
2022-10-19T08:58:03.006Z,98.13
2022-10-19T09:01:02.445Z,98.65
2022-10-19T09:03:56.621Z,96.97
2022-10-19T09:07:19.351Z,97.13
2022-10-19T09:10:18.511Z,96.40
2022-10-19T09:13:14.408Z,94.48
2022-10-19T09:16:00.211Z,93.98
2022-10-19T09:18:46.280Z,92.47
2022-10-19T09:21:47.789Z,90.29
2022-10-19T09:24:43.510Z,89.06
2022-10-19T09:27:49.947Z,86.46
2022-10-19T09:30:37.883Z,87.03
2022-10-19T09:33:28.748Z,85.42
2022-10-19T09:36:22.459Z,85.40
2022-10-19T09:39:12.240Z,82.63
2022-10-19T09:42:22.583Z,82.21
2022-10-19T09:45:27.516Z,82.61
2022-10-19T09:48:20.543Z,82.06
2022-10-19T09:51:13.096Z,81.19
2022-10-19T09:53:58.554Z,80.49
2022-10-19T09:56:53.784Z,80.70
2022-10-19T09:59:39.079Z,80.27
2022-10-19T10:02:33.216Z,80.93
2022-10-19T10:05:19.955Z,80.81
2022-10-19T10:08:14.355Z,80.06
2022-10-19T10:11:08.687Z,78.11
2022-10-19T10:13:55.794Z,77.26
2022-10-19T10:16:40.758Z,77.58
2022-10-19T10:19:32.873Z,77.57
2022-10-19T10:22:34.807Z,77.60
2022-10-19T10:25:20.212Z,76.17
2022-10-19T10:28:20.803Z,77.69
2022-10-19T10:31:08.726Z,77.22
2022-10-19T10:34:06.350Z,76.98
2022-10-19T10:37:04.356Z,76.90
2022-10-19T10:39:57.690Z,76.89
2022-10-19T10:42:47.763Z,76.73
2022-10-19T10:45:54.554Z,76.05
2022-10-19T10:48:44.537Z,76.29
2022-10-19T10:51:38.658Z,75.57
2022-10-19T10:54:29.449Z,76.24
2022-10-19T10:57:15.517Z,76.08
2022-10-19T11:00:15.974Z,76.11
2022-10-19T11:05:39.275Z,75.71
2022-10-19T11:08:41.519Z,75.23
2022-10-19T11:11:35.441Z,74.35
2022-10-19T11:14:38.856Z,75.14
2022-10-19T11:17:29.591Z,75.23
2022-10-19T11:20:15.421Z,75.29
2022-10-19T11:23:17.386Z,75.89
2022-10-19T11:26:14.811Z,75.29
2022-10-19T11:29:18.303Z,74.15
2022-10-19T11:32:12.096Z,73.67
2022-10-19T11:35:31.054Z,73.36
2022-10-19T11:38:31.250Z,73.88
2022-10-19T11:41:38.520Z,73.72
2022-10-19T11:44:53.107Z,74.46
2022-10-19T11:48:05.870Z,74.90
2022-10-19T11:50:58.603Z,73.36
2022-10-19T11:53:57.320Z,74.00
2022-10-19T11:57:11.630Z,74.13
2022-10-19T12:00:27.301Z,74.46
2022-10-19T12:03:54.375Z,74.27
2022-10-19T12:06:47.277Z,73.06
2022-10-19T12:09:32.416Z,71.35
2022-10-19T12:12:37.945Z,70.49
2022-10-19T12:15:35.393Z,70.21
2022-10-19T12:18:44.673Z,70.32
2022-10-19T12:21:41.437Z,69.94
2022-10-19T12:24:29.773Z,70.58
2022-10-19T12:27:17.247Z,70.62
2022-10-19T12:30:13.600Z,70.48
2022-10-19T12:33:22.788Z,71.69
2022-10-19T12:36:35.885Z,71.06
2022-10-19T12:39:30.223Z,71.00
2022-10-19T12:42:38.643Z,69.78
2022-10-19T12:45:51.423Z,68.57
2022-10-19T12:48:36.642Z,66.74
2022-10-19T12:51:21.493Z,64.79
2022-10-19T12:54:09.900Z,64.67
2022-10-19T12:56:57.091Z,64.49
2022-10-19T12:59:42.270Z,64.64
2022-10-19T13:05:24.090Z,65.05
2022-10-19T13:08:27.263Z,64.50
2022-10-19T13:11:14.044Z,62.89
2022-10-19T13:14:08.587Z,62.89
2022-10-19T13:17:01.610Z,61.86
2022-10-19T13:19:48.448Z,63.08
2022-10-19T13:22:33.730Z,62.77
2022-10-19T13:25:31.481Z,60.84
2022-10-19T13:28:29.040Z,63.06
2022-10-19T13:31:30.258Z,62.20
2022-10-19T13:34:15.982Z,63.20
2022-10-19T13:37:03.075Z,64.29
2022-10-19T13:39:49.652Z,64.59
2022-10-19T13:42:35.010Z,66.38
2022-10-19T13:45:24.959Z,67.15
2022-10-19T13:48:23.904Z,67.85
2022-10-19T13:51:22.490Z,67.95
2022-10-19T13:54:23.066Z,68.29
2022-10-19T13:57:17.784Z,68.60
2022-10-19T14:00:12.899Z,68.24
2022-10-19T14:03:30.278Z,68.95
2022-10-19T14:06:42.902Z,69.03
2022-10-19T14:09:40.002Z,68.83
2022-10-19T14:12:29.307Z,69.37
2022-10-19T14:15:22.479Z,69.64
2022-10-19T14:18:23.561Z,68.98
2022-10-19T14:21:10.342Z,68.14
2022-10-19T14:23:55.529Z,69.40
2022-10-19T14:26:40.450Z,69.35
2022-10-19T14:29:25.916Z,69.82
2022-10-19T14:32:12.118Z,70.31
2022-10-19T14:37:50.479Z,70.23
2022-10-19T14:40:41.018Z,70.46
2022-10-19T14:43:34.038Z,69.84
2022-10-19T14:46:32.529Z,69.22
2022-10-19T14:49:17.794Z,69.91
2022-10-19T14:52:03.856Z,70.40
2022-10-19T14:54:53.666Z,68.05
2022-10-19T14:57:40.674Z,68.55
2022-10-19T15:03:30.065Z,69.06
2022-10-19T15:06:26.974Z,70.40
2022-10-19T15:09:47.850Z,70.87
2022-10-19T15:12:39.808Z,71.08
2022-10-19T15:15:27.921Z,70.99
2022-10-19T15:18:43.521Z,71.79
2022-10-19T15:21:21.822Z,71.75
2022-10-19T15:24:22.792Z,71.89
2022-10-19T15:27:10.306Z,72.47
2022-10-19T15:30:21.363Z,72.75
2022-10-19T15:33:16.523Z,73.18
2022-10-19T15:36:12.454Z,73.67
2022-10-19T15:39:11.468Z,74.44
2022-10-19T15:42:21.553Z,74.71
2022-10-19T15:45:36.276Z,75.39
2022-10-19T15:48:52.500Z,75.83
2022-10-19T15:51:44.306Z,75.87
2022-10-19T15:54:29.441Z,76.24
2022-10-19T15:57:37.927Z,76.44
2022-10-19T16:00:23.241Z,77.04
2022-10-19T16:03:08.419Z,77.54
2022-10-19T16:05:53.723Z,77.82
2022-10-19T16:08:38.929Z,77.99
2022-10-19T16:11:25.272Z,78.34
2022-10-19T16:14:10.237Z,78.48
2022-10-19T16:16:55.735Z,78.05
2022-10-19T16:19:42.076Z,79.14
2022-10-19T16:22:27.309Z,79.91
2022-10-19T16:25:13.016Z,80.41
2022-10-19T16:27:58.028Z,80.14
2022-10-19T16:30:43.012Z,80.55
2022-10-19T16:33:27.933Z,81.27
2022-10-19T16:36:13.065Z,81.65
2022-10-19T16:39:00.605Z,82.02
2022-10-19T16:41:45.702Z,81.96
2022-10-19T16:44:31.053Z,82.33
2022-10-19T16:47:15.990Z,82.86
2022-10-19T16:50:03.717Z,83.16
2022-10-19T16:53:04.367Z,82.87
2022-10-19T16:55:49.214Z,83.52
2022-10-19T16:58:35.391Z,83.55
2022-10-19T17:01:21.409Z,83.97
2022-10-19T17:04:06.926Z,84.38
2022-10-19T17:06:52.796Z,85.03
2022-10-19T17:09:42.740Z,85.31
2022-10-19T17:12:28.614Z,85.41
2022-10-19T17:15:47.357Z,85.05
2022-10-19T17:18:25.436Z,85.62
2022-10-19T17:21:17.403Z,85.85
2022-10-19T17:24:16.900Z,86.04
2022-10-19T17:27:05.492Z,85.65
2022-10-19T17:29:53.582Z,86.20
2022-10-19T17:32:40.370Z,86.43
2022-10-19T17:35:25.237Z,86.94
2022-10-19T17:38:11.422Z,86.78
2022-10-19T17:40:56.582Z,87.42
2022-10-19T17:43:44.071Z,87.52
2022-10-19T17:46:35.141Z,87.17
2022-10-19T17:49:20.637Z,87.57
2022-10-19T17:52:05.886Z,87.41
2022-10-19T17:55:11.266Z,87.44
2022-10-19T17:57:56.340Z,88.00
2022-10-19T18:00:41.593Z,87.89
2022-10-19T18:03:29.431Z,87.93
2022-10-19T18:06:25.890Z,87.87
2022-10-19T18:09:13.912Z,88.18
2022-10-19T18:12:04.733Z,88.50
2022-10-19T18:14:52.246Z,88.20
2022-10-19T18:17:37.527Z,88.39
2022-10-19T18:20:22.719Z,87.93
2022-10-19T18:23:07.494Z,88.40
2022-10-19T18:25:54.436Z,88.34
2022-10-19T18:28:43.314Z,88.51
2022-10-19T18:31:31.782Z,88.75
2022-10-19T18:34:19.322Z,89.02
2022-10-19T18:37:04.336Z,89.14
2022-10-19T18:39:50.401Z,89.40
2022-10-19T18:42:36.446Z,89.92
2022-10-19T18:45:22.339Z,90.22
2022-10-19T18:48:07.574Z,90.08
2022-10-19T18:50:57.679Z,89.95
2022-10-19T18:53:43.183Z,89.62
2022-10-19T18:56:28.270Z,89.71
2022-10-19T18:59:14.756Z,90.05
2022-10-19T19:01:59.970Z,89.80
2022-10-19T19:04:44.944Z,90.20
2022-10-19T19:07:29.939Z,90.16
2022-10-19T19:10:15.195Z,90.08
2022-10-19T19:13:00.817Z,90.39
2022-10-19T19:15:55.401Z,90.64
2022-10-19T19:18:40.419Z,90.83
2022-10-19T19:21:28.198Z,90.55
2022-10-19T19:24:18.866Z,90.56
2022-10-19T19:27:04.082Z,90.70
2022-10-19T19:29:56.607Z,90.62
2022-10-19T19:32:41.368Z,90.36
2022-10-19T19:35:26.242Z,90.58
2022-10-19T19:38:12.497Z,91.15
2022-10-19T19:40:57.724Z,90.89
2022-10-19T19:43:43.385Z,90.99
2022-10-19T19:46:28.789Z,90.56
2022-10-19T19:49:14.507Z,90.50
2022-10-19T19:51:59.336Z,90.49
2022-10-19T19:54:44.669Z,90.84
2022-10-19T19:57:29.655Z,90.85
2022-10-19T20:00:15.402Z,90.47
2022-10-19T20:03:00.395Z,91.12
2022-10-19T20:05:45.780Z,91.82
2022-10-19T20:08:31.310Z,91.65
2022-10-19T20:11:16.803Z,91.66
2022-10-19T20:14:02.200Z,91.66
2022-10-19T20:16:47.126Z,91.76
2022-10-19T20:19:32.117Z,91.42
2022-10-19T20:22:17.271Z,91.75
2022-10-19T20:25:03.369Z,91.54
2022-10-19T20:27:48.585Z,92.03
2022-10-19T20:30:33.939Z,91.95
2022-10-19T20:33:19.427Z,92.62
2022-10-19T20:36:06.527Z,92.79
2022-10-19T20:38:54.140Z,92.88
2022-10-19T20:41:39.332Z,92.53
2022-10-19T20:44:24.666Z,92.65
2022-10-19T20:47:10.584Z,92.62
2022-10-19T20:49:56.264Z,92.49
2022-10-19T20:52:41.492Z,92.89
2022-10-19T20:55:26.829Z,92.91
2022-10-19T20:58:12.329Z,93.09
2022-10-19T21:01:04.691Z,93.38
2022-10-19T21:03:53.500Z,93.27
2022-10-19T21:06:41.411Z,93.44
2022-10-19T21:09:26.890Z,93.19
2022-10-19T21:12:11.794Z,93.43
2022-10-19T21:14:56.787Z,93.45
2022-10-19T21:17:47.334Z,93.64
2022-10-19T21:20:33.491Z,93.72
2022-10-19T21:23:22.240Z,93.41
2022-10-19T21:26:09.468Z,93.62
2022-10-19T21:28:55.101Z,93.78
2022-10-19T21:31:48.607Z,93.81
2022-10-19T21:34:34.416Z,93.89
2022-10-19T21:37:21.753Z,93.42
2022-10-19T21:40:08.084Z,93.68
2022-10-19T21:42:53.268Z,93.68
2022-10-19T21:45:38.258Z,93.50
2022-10-19T21:48:23.486Z,93.35
2022-10-19T21:51:20.401Z,92.97
2022-10-19T21:54:07.336Z,92.84
2022-10-19T21:56:52.781Z,92.89
2022-10-19T21:59:37.999Z,92.94
2022-10-19T22:02:23.263Z,93.06
2022-10-19T22:05:08.419Z,93.17
2022-10-19T22:07:53.640Z,93.95
2022-10-19T22:10:39.040Z,93.26
2022-10-19T22:13:24.217Z,93.66
2022-10-19T22:16:12.972Z,93.61
2022-10-19T22:18:58.565Z,93.72
2022-10-19T22:21:43.941Z,94.25
2022-10-19T22:24:28.915Z,94.56
2022-10-19T22:27:13.803Z,94.61
2022-10-19T22:29:58.629Z,95.02
2022-10-19T22:32:43.505Z,94.95
2022-10-19T22:35:28.788Z,95.20
2022-10-19T22:38:13.732Z,95.23
2022-10-19T22:40:58.584Z,95.09
2022-10-19T22:43:43.614Z,95.24
2022-10-19T22:46:28.613Z,95.81
2022-10-19T22:49:13.552Z,96.09
2022-10-19T22:51:58.860Z,95.86
2022-10-19T22:54:43.850Z,95.77
2022-10-19T22:57:29.113Z,95.83
2022-10-19T23:00:14.308Z,96.18
2022-10-19T23:02:59.064Z,96.02
2022-10-19T23:05:43.889Z,96.10
2022-10-19T23:08:28.803Z,96.57
2022-10-19T23:11:15.326Z,96.70
2022-10-19T23:14:00.243Z,96.69
2022-10-19T23:16:45.157Z,96.79
2022-10-19T23:19:30.057Z,96.99
2022-10-19T23:22:15.019Z,96.54
2022-10-19T23:25:00.078Z,96.67
2022-10-19T23:27:45.051Z,96.87
2022-10-19T23:30:30.087Z,96.50
2022-10-19T23:33:15.096Z,96.62
2022-10-19T23:36:08.876Z,96.48
2022-10-19T23:38:55.683Z,96.40
2022-10-19T23:41:40.808Z,97.01
2022-10-19T23:44:25.603Z,96.80
2022-10-19T23:47:10.614Z,96.95
2022-10-19T23:49:55.511Z,97.05
2022-10-19T23:52:40.554Z,97.03
2022-10-19T23:55:25.734Z,97.69
2022-10-19T23:58:11.127Z,97.64
